Gardar, North Dakota
Current Conditions -  °F | °C
As of 7:15 PM on Monday 26 Jan 2015 (Local Time) from K2C8 Reporting Station
Clear Clear  
Wind Chill: 25°   Ceiling: Unl
Heat Index: 25°   Visibility: 10mi
Dew Point: 23°   Wind: 3mph
Humidity: 93%   Direction: 20°NNE
Pressure: 29.98"   Gusts: NA
Location:  48.4822°N, 97.9139°W
Report Text: K2C8 270115Z AUTO 02003KT 10SM CLR M04/M05 A2998 RMK AO2
Loading
Personal Weather Stations






























Interactive Weather Map New forecast layout! Learn more

10-Day Weather Forecast

Advertisements
Track Severe Weather on mobile